LFMH/EBU METAR and TAF weather

Enter ICAO airport designator
Station Type Date Time Source
LFMH METAR 2021/10/22 19:00 UTC NOAA

LFMH 221900Z AUTO 25002KT CAVOK 05/01 Q1025


Station Type Date Time Source
LFMH Decoded METAR 2021/10/22 19:00 UTC NOAA

St-Etienne Boutheon, France (LFMH) 45-32N 004-18E 402M
Oct 22, 2021 - 03:00 PM EDT / 2021.10.22 1900 UTC
Wind: from the WSW (250 degrees) at 2 MPH (2 KT):0
Visibility: greater than 7 mile(s):0
Temperature: 41 F (5 C)
Dew Point: 33 F (1 C)
Relative Humidity: 75%
Pressure (altimeter): 30.27 in. Hg (1025 hPa)
ob: LFMH 221900Z AUTO 25002KT CAVOK 05/01 Q1025
cycle: 19

Station Type Date Time Source
LFMH TAF 2021/06/16 19:09 UTC NOAA

TAF LFMH 161901Z 1619/1712 CNL

Example: see airport list